Pinos Altos, New Mexico
Current Conditions -  °F | °C
As of 12:35 AM on Wednesday 22 Oct 2014 (Local Time) from KSVC Reporting Station
Broken Clouds Broken Clouds  
Wind Chill: 12°   Ceiling: 3700
Heat Index: 12°   Visibility: 10mi
Dew Point: 10°   Wind: 3mph
Humidity: 88%   Direction: 60°ENE
Pressure: 30.14"   Gusts: NA
Location:  32.87°N, 108.22°W
Report Text: KSVC 220635Z AUTO 06003KT 10SM BKN037 BKN045 12/10 A3014 RMK AO2
Loading
Personal Weather Stations






























Interactive Weather Map
Tropical Storm Tracking
New forecast layout! Learn more

10-Day Weather Forecast

Advertisements
Track Severe Weather on mobile